sensor_id;sensor_type;location;lat;lon;timestamp;P1;durP1;ratioP1;P2;durP2;ratioP2
25752;SDS011;13600;50.816;4.416;2023-07-30T00:01:24;11.25;;;3.58;;
25752;SDS011;13600;50.816;4.416;2023-07-30T00:03:51;12.98;;;3.80;;
25752;SDS011;13600;50.816;4.416;2023-07-30T00:06:17;15.32;;;3.35;;
25752;SDS011;13600;50.816;4.416;2023-07-30T00:08:42;14.50;;;3.70;;
25752;SDS011;13600;50.816;4.416;2023-07-30T00:11:08;14.50;;;3.80;;
25752;SDS011;13600;50.816;4.416;2023-07-30T00:13:33;15.70;;;3.80;;
25752;SDS011;13600;50.816;4.416;2023-07-30T00:15:59;13.90;;;3.28;;
25752;SDS011;13600;50.816;4.416;2023-07-30T00:18:24;14.38;;;3.80;;
25752;SDS011;13600;50.816;4.416;2023-07-30T00:20:50;17.98;;;3.78;;
25752;SDS011;13600;50.816;4.416;2023-07-30T00:23:16;10.63;;;2.92;;
25752;SDS011;13600;50.816;4.416;2023-07-30T00:25:41;17.92;;;3.00;;
25752;SDS011;13600;50.816;4.416;2023-07-30T00:28:07;15.48;;;3.28;;
25752;SDS011;13600;50.816;4.416;2023-07-30T00:30:32;16.85;;;3.25;;
25752;SDS011;13600;50.816;4.416;2023-07-30T00:32:58;14.52;;;3.05;;
25752;SDS011;13600;50.816;4.416;2023-07-30T00:35:23;17.33;;;3.28;;
25752;SDS011;13600;50.816;4.416;2023-07-30T00:37:49;20.35;;;3.60;;
25752;SDS011;13600;50.816;4.416;2023-07-30T00:40:16;12.10;;;3.15;;
25752;SDS011;13600;50.816;4.416;2023-07-30T00:42:42;16.80;;;3.67;;
25752;SDS011;13600;50.816;4.416;2023-07-30T00:45:08;12.90;;;2.55;;
25752;SDS011;13600;50.816;4.416;2023-07-30T00:47:35;14.77;;;2.85;;
25752;SDS011;13600;50.816;4.416;2023-07-30T00:50:02;15.13;;;3.58;;
25752;SDS011;13600;50.816;4.416;2023-07-30T00:52:29;18.92;;;3.47;;
25752;SDS011;13600;50.816;4.416;2023-07-30T00:54:56;16.92;;;2.90;;
25752;SDS011;13600;50.816;4.416;2023-07-30T00:57:23;15.18;;;3.53;;
25752;SDS011;13600;50.816;4.416;2023-07-30T00:59:50;16.85;;;3.08;;
25752;SDS011;13600;50.816;4.416;2023-07-30T01:02:16;20.10;;;3.47;;
25752;SDS011;13600;50.816;4.416;2023-07-30T01:04:43;14.90;;;3.28;;
25752;SDS011;13600;50.816;4.416;2023-07-30T01:07:09;13.13;;;2.97;;
25752;SDS011;13600;50.816;4.416;2023-07-30T01:09:35;26.23;;;4.15;;
25752;SDS011;13600;50.816;4.416;2023-07-30T01:12:00;16.95;;;3.20;;
25752;SDS011;13600;50.816;4.416;2023-07-30T01:14:28;17.77;;;3.58;;
25752;SDS011;13600;50.816;4.416;2023-07-30T01:16:54;15.90;;;3.33;;
25752;SDS011;13600;50.816;4.416;2023-07-30T01:19:20;13.25;;;2.70;;
25752;SDS011;13600;50.816;4.416;2023-07-30T01:21:46;21.40;;;3.28;;
25752;SDS011;13600;50.816;4.416;2023-07-30T01:24:11;21.02;;;3.72;;
25752;SDS011;13600;50.816;4.416;2023-07-30T01:26:43;17.40;;;3.80;;
25752;SDS011;13600;50.816;4.416;2023-07-30T01:29:13;16.73;;;3.38;;
25752;SDS011;13600;50.816;4.416;2023-07-30T01:31:44;16.83;;;3.15;;
25752;SDS011;13600;50.816;4.416;2023-07-30T01:34:15;14.20;;;3.33;;
25752;SDS011;13600;50.816;4.416;2023-07-30T01:36:41;17.08;;;3.40;;
25752;SDS011;13600;50.816;4.416;2023-07-30T01:39:08;18.80;;;3.33;;
25752;SDS011;13600;50.816;4.416;2023-07-30T01:41:36;15.20;;;3.00;;
25752;SDS011;13600;50.816;4.416;2023-07-30T01:44:02;21.95;;;3.80;;
25752;SDS011;13600;50.816;4.416;2023-07-30T01:46:27;21.30;;;3.90;;
25752;SDS011;13600;50.816;4.416;2023-07-30T01:48:53;16.60;;;3.20;;
25752;SDS011;13600;50.816;4.416;2023-07-30T01:51:18;12.23;;;2.90;;
25752;SDS011;13600;50.816;4.416;2023-07-30T01:53:44;16.33;;;2.80;;
25752;SDS011;13600;50.816;4.416;2023-07-30T01:56:10;14.90;;;2.92;;
25752;SDS011;13600;50.816;4.416;2023-07-30T01:58:35;21.60;;;3.00;;
25752;SDS011;13600;50.816;4.416;2023-07-30T02:01:01;15.43;;;3.10;;
25752;SDS011;13600;50.816;4.416;2023-07-30T02:03:26;16.88;;;3.10;;
25752;SDS011;13600;50.816;4.416;2023-07-30T02:05:52;17.58;;;3.08;;
25752;SDS011;13600;50.816;4.416;2023-07-30T02:08:18;20.02;;;3.40;;
25752;SDS011;13600;50.816;4.416;2023-07-30T02:10:43;13.52;;;2.80;;
25752;SDS011;13600;50.816;4.416;2023-07-30T02:13:09;18.80;;;3.13;;
25752;SDS011;13600;50.816;4.416;2023-07-30T02:15:34;14.18;;;2.83;;
25752;SDS011;13600;50.816;4.416;2023-07-30T02:18:05;18.15;;;3.25;;
25752;SDS011;13600;50.816;4.416;2023-07-30T02:20:31;19.95;;;3.05;;
25752;SDS011;13600;50.816;4.416;2023-07-30T02:22:56;15.35;;;2.70;;
25752;SDS011;13600;50.816;4.416;2023-07-30T02:25:22;17.73;;;2.97;;
25752;SDS011;13600;50.816;4.416;2023-07-30T02:27:47;16.85;;;3.28;;
25752;SDS011;13600;50.816;4.416;2023-07-30T02:30:13;20.27;;;2.88;;
25752;SDS011;13600;50.816;4.416;2023-07-30T02:32:38;18.05;;;3.05;;
25752;SDS011;13600;50.816;4.416;2023-07-30T02:35:05;17.27;;;2.90;;
25752;SDS011;13600;50.816;4.416;2023-07-30T02:37:31;17.67;;;3.55;;
25752;SDS011;13600;50.816;4.416;2023-07-30T02:39:57;19.08;;;3.47;;
25752;SDS011;13600;50.816;4.416;2023-07-30T02:42:24;15.70;;;2.85;;
25752;SDS011;13600;50.816;4.416;2023-07-30T02:44:50;12.77;;;2.67;;
25752;SDS011;13600;50.816;4.416;2023-07-30T02:47:15;19.80;;;3.08;;
25752;SDS011;13600;50.816;4.416;2023-07-30T02:49:41;14.25;;;2.42;;
25752;SDS011;13600;50.816;4.416;2023-07-30T02:52:06;20.20;;;3.50;;
25752;SDS011;13600;50.816;4.416;2023-07-30T02:54:32;18.95;;;3.10;;
25752;SDS011;13600;50.816;4.416;2023-07-30T02:56:58;19.88;;;3.25;;
25752;SDS011;13600;50.816;4.416;2023-07-30T02:59:24;23.52;;;3.42;;
25752;SDS011;13600;50.816;4.416;2023-07-30T03:01:50;19.58;;;3.33;;
25752;SDS011;13600;50.816;4.416;2023-07-30T03:04:15;18.05;;;2.75;;
25752;SDS011;13600;50.816;4.416;2023-07-30T03:06:41;20.80;;;3.05;;
25752;SDS011;13600;50.816;4.416;2023-07-30T03:09:07;16.98;;;3.05;;
25752;SDS011;13600;50.816;4.416;2023-07-30T03:11:32;21.85;;;3.08;;
25752;SDS011;13600;50.816;4.416;2023-07-30T03:13:58;18.05;;;3.20;;
25752;SDS011;13600;50.816;4.416;2023-07-30T03:16:23;18.05;;;2.95;;
25752;SDS011;13600;50.816;4.416;2023-07-30T03:18:50;19.90;;;3.17;;
25752;SDS011;13600;50.816;4.416;2023-07-30T03:21:16;18.15;;;2.90;;
25752;SDS011;13600;50.816;4.416;2023-07-30T03:23:42;21.25;;;2.90;;
25752;SDS011;13600;50.816;4.416;2023-07-30T03:26:09;25.08;;;3.17;;
25752;SDS011;13600;50.816;4.416;2023-07-30T03:28:35;26.10;;;3.63;;
25752;SDS011;13600;50.816;4.416;2023-07-30T03:31:01;23.73;;;3.25;;
25752;SDS011;13600;50.816;4.416;2023-07-30T03:33:26;17.77;;;2.88;;
25752;SDS011;13600;50.816;4.416;2023-07-30T03:35:53;17.27;;;3.00;;
25752;SDS011;13600;50.816;4.416;2023-07-30T03:38:19;23.02;;;2.92;;
25752;SDS011;13600;50.816;4.416;2023-07-30T03:40:44;22.25;;;3.13;;
25752;SDS011;13600;50.816;4.416;2023-07-30T03:43:10;19.85;;;3.30;;
25752;SDS011;13600;50.816;4.416;2023-07-30T03:45:36;22.92;;;3.42;;
25752;SDS011;13600;50.816;4.416;2023-07-30T03:48:02;18.80;;;2.92;;
25752;SDS011;13600;50.816;4.416;2023-07-30T03:50:28;25.38;;;2.85;;
25752;SDS011;13600;50.816;4.416;2023-07-30T03:52:53;23.13;;;3.33;;
25752;SDS011;13600;50.816;4.416;2023-07-30T03:55:19;20.80;;;3.08;;
25752;SDS011;13600;50.816;4.416;2023-07-30T03:57:44;18.77;;;2.85;;
25752;SDS011;13600;50.816;4.416;2023-07-30T04:00:10;20.75;;;3.03;;
25752;SDS011;13600;50.816;4.416;2023-07-30T04:02:36;18.75;;;2.72;;
25752;SDS011;13600;50.816;4.416;2023-07-30T04:05:02;20.00;;;2.63;;
25752;SDS011;13600;50.816;4.416;2023-07-30T04:07:28;18.90;;;3.20;;
25752;SDS011;13600;50.816;4.416;2023-07-30T04:09:53;17.80;;;2.88;;
25752;SDS011;13600;50.816;4.416;2023-07-30T04:12:19;20.55;;;3.13;;
25752;SDS011;13600;50.816;4.416;2023-07-30T04:14:46;19.35;;;3.58;;
25752;SDS011;13600;50.816;4.416;2023-07-30T04:17:12;21.45;;;3.90;;
25752;SDS011;13600;50.816;4.416;2023-07-30T04:19:37;16.95;;;2.65;;
25752;SDS011;13600;50.816;4.416;2023-07-30T04:22:04;22.27;;;3.10;;
25752;SDS011;13600;50.816;4.416;2023-07-30T04:24:29;20.25;;;3.03;;
25752;SDS011;13600;50.816;4.416;2023-07-30T04:26:55;20.20;;;2.95;;
25752;SDS011;13600;50.816;4.416;2023-07-30T04:29:20;17.42;;;2.70;;
25752;SDS011;13600;50.816;4.416;2023-07-30T04:31:46;25.10;;;3.30;;
25752;SDS011;13600;50.816;4.416;2023-07-30T04:34:12;18.42;;;2.97;;
25752;SDS011;13600;50.816;4.416;2023-07-30T04:36:38;17.50;;;2.53;;
25752;SDS011;13600;50.816;4.416;2023-07-30T04:39:04;21.77;;;3.15;;
25752;SDS011;13600;50.816;4.416;2023-07-30T04:41:29;25.75;;;3.13;;
25752;SDS011;13600;50.816;4.416;2023-07-30T04:43:55;21.45;;;3.00;;
25752;SDS011;13600;50.816;4.416;2023-07-30T04:46:22;15.05;;;2.60;;
25752;SDS011;13600;50.816;4.416;2023-07-30T04:48:47;19.05;;;2.92;;
25752;SDS011;13600;50.816;4.416;2023-07-30T04:51:13;21.63;;;3.45;;
25752;SDS011;13600;50.816;4.416;2023-07-30T04:53:38;22.63;;;3.67;;
25752;SDS011;13600;50.816;4.416;2023-07-30T04:56:04;31.73;;;3.17;;
25752;SDS011;13600;50.816;4.416;2023-07-30T04:58:30;22.63;;;3.50;;
25752;SDS011;13600;50.816;4.416;2023-07-30T05:00:55;19.92;;;3.05;;
25752;SDS011;13600;50.816;4.416;2023-07-30T05:03:21;29.15;;;4.00;;
25752;SDS011;13600;50.816;4.416;2023-07-30T05:05:46;29.42;;;3.70;;
25752;SDS011;13600;50.816;4.416;2023-07-30T05:08:12;29.33;;;3.28;;
25752;SDS011;13600;50.816;4.416;2023-07-30T05:10:37;25.85;;;3.20;;
25752;SDS011;13600;50.816;4.416;2023-07-30T05:13:03;30.35;;;4.72;;
25752;SDS011;13600;50.816;4.416;2023-07-30T05:15:28;21.42;;;2.65;;
25752;SDS011;13600;50.816;4.416;2023-07-30T05:17:54;23.95;;;3.58;;
25752;SDS011;13600;50.816;4.416;2023-07-30T05:20:20;19.17;;;2.97;;
25752;SDS011;13600;50.816;4.416;2023-07-30T05:22:45;23.45;;;3.20;;
25752;SDS011;13600;50.816;4.416;2023-07-30T05:25:11;23.20;;;3.33;;
25752;SDS011;13600;50.816;4.416;2023-07-30T05:27:37;24.70;;;3.20;;
25752;SDS011;13600;50.816;4.416;2023-07-30T05:30:02;19.70;;;2.67;;
25752;SDS011;13600;50.816;4.416;2023-07-30T05:32:28;18.90;;;3.05;;
25752;SDS011;13600;50.816;4.416;2023-07-30T05:34:54;23.67;;;3.63;;
25752;SDS011;13600;50.816;4.416;2023-07-30T05:37:19;18.38;;;3.40;;
25752;SDS011;13600;50.816;4.416;2023-07-30T05:39:45;23.38;;;3.30;;
25752;SDS011;13600;50.816;4.416;2023-07-30T05:42:10;20.70;;;2.95;;
25752;SDS011;13600;50.816;4.416;2023-07-30T05:44:36;26.48;;;3.65;;
25752;SDS011;13600;50.816;4.416;2023-07-30T05:47:02;23.20;;;2.95;;
25752;SDS011;13600;50.816;4.416;2023-07-30T05:49:27;23.38;;;3.10;;
25752;SDS011;13600;50.816;4.416;2023-07-30T05:51:53;21.42;;;3.13;;
25752;SDS011;13600;50.816;4.416;2023-07-30T05:54:20;22.83;;;3.05;;
25752;SDS011;13600;50.816;4.416;2023-07-30T05:56:45;20.23;;;3.38;;
25752;SDS011;13600;50.816;4.416;2023-07-30T05:59:11;16.42;;;3.53;;
25752;SDS011;13600;50.816;4.416;2023-07-30T06:01:36;25.23;;;3.13;;
25752;SDS011;13600;50.816;4.416;2023-07-30T06:04:02;23.02;;;3.10;;
25752;SDS011;13600;50.816;4.416;2023-07-30T06:06:28;23.30;;;3.20;;
25752;SDS011;13600;50.816;4.416;2023-07-30T06:08:54;22.27;;;3.35;;
25752;SDS011;13600;50.816;4.416;2023-07-30T06:11:20;21.27;;;3.85;;
25752;SDS011;13600;50.816;4.416;2023-07-30T06:13:46;20.90;;;3.03;;
25752;SDS011;13600;50.816;4.416;2023-07-30T06:16:13;17.83;;;2.88;;
25752;SDS011;13600;50.816;4.416;2023-07-30T06:18:39;19.25;;;2.92;;
25752;SDS011;13600;50.816;4.416;2023-07-30T06:21:04;16.73;;;3.20;;
25752;SDS011;13600;50.816;4.416;2023-07-30T06:23:30;17.70;;;3.25;;
25752;SDS011;13600;50.816;4.416;2023-07-30T06:25:55;26.90;;;3.90;;
25752;SDS011;13600;50.816;4.416;2023-07-30T06:28:21;22.98;;;3.17;;
25752;SDS011;13600;50.816;4.416;2023-07-30T06:30:48;26.30;;;3.35;;
25752;SDS011;13600;50.816;4.416;2023-07-30T06:33:13;20.50;;;3.28;;
25752;SDS011;13600;50.816;4.416;2023-07-30T06:35:40;23.30;;;3.53;;
25752;SDS011;13600;50.816;4.416;2023-07-30T06:38:07;21.80;;;3.22;;
25752;SDS011;13600;50.816;4.416;2023-07-30T06:40:34;20.92;;;3.47;;
25752;SDS011;13600;50.816;4.416;2023-07-30T06:42:59;24.95;;;3.78;;
25752;SDS011;13600;50.816;4.416;2023-07-30T06:45:25;19.67;;;3.00;;
25752;SDS011;13600;50.816;4.416;2023-07-30T06:47:51;27.13;;;3.33;;
25752;SDS011;13600;50.816;4.416;2023-07-30T06:50:16;20.42;;;4.15;;
25752;SDS011;13600;50.816;4.416;2023-07-30T06:52:42;22.00;;;3.42;;
25752;SDS011;13600;50.816;4.416;2023-07-30T06:55:08;24.73;;;4.25;;
25752;SDS011;13600;50.816;4.416;2023-07-30T06:57:34;22.67;;;3.47;;
25752;SDS011;13600;50.816;4.416;2023-07-30T06:59:59;27.88;;;3.30;;
25752;SDS011;13600;50.816;4.416;2023-07-30T07:02:25;17.90;;;3.03;;
25752;SDS011;13600;50.816;4.416;2023-07-30T07:04:51;19.70;;;3.20;;
25752;SDS011;13600;50.816;4.416;2023-07-30T07:07:19;20.77;;;2.90;;
25752;SDS011;13600;50.816;4.416;2023-07-30T07:09:45;21.88;;;3.30;;
25752;SDS011;13600;50.816;4.416;2023-07-30T07:12:11;25.77;;;3.70;;
25752;SDS011;13600;50.816;4.416;2023-07-30T07:14:36;27.20;;;4.05;;
25752;SDS011;13600;50.816;4.416;2023-07-30T07:17:02;20.90;;;3.85;;
25752;SDS011;13600;50.816;4.416;2023-07-30T07:19:28;17.02;;;3.28;;
25752;SDS011;13600;50.816;4.416;2023-07-30T07:21:53;19.25;;;3.30;;
25752;SDS011;13600;50.816;4.416;2023-07-30T07:24:19;21.05;;;2.78;;
25752;SDS011;13600;50.816;4.416;2023-07-30T07:26:44;24.17;;;3.03;;
25752;SDS011;13600;50.816;4.416;2023-07-30T07:29:10;17.42;;;3.60;;
25752;SDS011;13600;50.816;4.416;2023-07-30T07:31:36;19.33;;;3.55;;
25752;SDS011;13600;50.816;4.416;2023-07-30T07:34:01;16.25;;;3.17;;
25752;SDS011;13600;50.816;4.416;2023-07-30T07:36:27;18.00;;;3.05;;
25752;SDS011;13600;50.816;4.416;2023-07-30T07:38:52;15.95;;;2.90;;
25752;SDS011;13600;50.816;4.416;2023-07-30T07:41:18;15.40;;;2.55;;
25752;SDS011;13600;50.816;4.416;2023-07-30T07:43:44;14.93;;;2.63;;
25752;SDS011;13600;50.816;4.416;2023-07-30T07:46:10;21.35;;;3.25;;
25752;SDS011;13600;50.816;4.416;2023-07-30T07:48:41;16.90;;;2.85;;
25752;SDS011;13600;50.816;4.416;2023-07-30T07:51:08;19.85;;;3.42;;
25752;SDS011;13600;50.816;4.416;2023-07-30T07:53:35;17.05;;;2.80;;
25752;SDS011;13600;50.816;4.416;2023-07-30T07:56:01;15.18;;;2.60;;
25752;SDS011;13600;50.816;4.416;2023-07-30T07:58:27;16.63;;;2.88;;
25752;SDS011;13600;50.816;4.416;2023-07-30T08:00:56;16.80;;;3.10;;
25752;SDS011;13600;50.816;4.416;2023-07-30T08:03:22;16.63;;;2.50;;
25752;SDS011;13600;50.816;4.416;2023-07-30T08:05:48;15.23;;;3.15;;
25752;SDS011;13600;50.816;4.416;2023-07-30T08:08:14;18.88;;;3.05;;
25752;SDS011;13600;50.816;4.416;2023-07-30T08:10:40;18.98;;;3.05;;
25752;SDS011;13600;50.816;4.416;2023-07-30T08:13:08;21.80;;;2.92;;
25752;SDS011;13600;50.816;4.416;2023-07-30T08:15:35;16.30;;;2.58;;
25752;SDS011;13600;50.816;4.416;2023-07-30T08:18:00;15.88;;;2.67;;
25752;SDS011;13600;50.816;4.416;2023-07-30T08:20:26;15.00;;;2.92;;
25752;SDS011;13600;50.816;4.416;2023-07-30T08:22:51;12.70;;;2.38;;
25752;SDS011;13600;50.816;4.416;2023-07-30T08:25:17;14.98;;;2.17;;
25752;SDS011;13600;50.816;4.416;2023-07-30T08:27:43;14.48;;;2.92;;
25752;SDS011;13600;50.816;4.416;2023-07-30T08:30:08;14.38;;;2.58;;
25752;SDS011;13600;50.816;4.416;2023-07-30T08:32:34;17.17;;;2.67;;
25752;SDS011;13600;50.816;4.416;2023-07-30T08:35:00;15.85;;;2.75;;
25752;SDS011;13600;50.816;4.416;2023-07-30T08:37:25;18.90;;;3.00;;
25752;SDS011;13600;50.816;4.416;2023-07-30T08:39:52;26.60;;;3.58;;
25752;SDS011;13600;50.816;4.416;2023-07-30T08:42:17;13.95;;;2.33;;
25752;SDS011;13600;50.816;4.416;2023-07-30T08:44:43;15.23;;;2.75;;
25752;SDS011;13600;50.816;4.416;2023-07-30T08:47:10;17.88;;;2.88;;
25752;SDS011;13600;50.816;4.416;2023-07-30T08:49:36;16.80;;;2.83;;
25752;SDS011;13600;50.816;4.416;2023-07-30T08:52:02;18.65;;;2.85;;
25752;SDS011;13600;50.816;4.416;2023-07-30T08:54:30;14.88;;;2.55;;
25752;SDS011;13600;50.816;4.416;2023-07-30T08:56:56;14.43;;;2.70;;
25752;SDS011;13600;50.816;4.416;2023-07-30T08:59:27;16.73;;;2.47;;
25752;SDS011;13600;50.816;4.416;2023-07-30T09:02:02;14.55;;;2.78;;
25752;SDS011;13600;50.816;4.416;2023-07-30T09:04:34;15.30;;;2.58;;
25752;SDS011;13600;50.816;4.416;2023-07-30T09:07:02;17.92;;;3.15;;
25752;SDS011;13600;50.816;4.416;2023-07-30T09:09:28;15.07;;;2.17;;
25752;SDS011;13600;50.816;4.416;2023-07-30T09:11:54;18.75;;;2.70;;
25752;SDS011;13600;50.816;4.416;2023-07-30T09:14:20;15.73;;;2.38;;
25752;SDS011;13600;50.816;4.416;2023-07-30T09:16:46;11.18;;;2.05;;
25752;SDS011;13600;50.816;4.416;2023-07-30T09:19:18;16.88;;;3.22;;
25752;SDS011;13600;50.816;4.416;2023-07-30T09:21:43;19.80;;;3.00;;
25752;SDS011;13600;50.816;4.416;2023-07-30T09:24:09;11.60;;;2.50;;
25752;SDS011;13600;50.816;4.416;2023-07-30T09:26:44;14.98;;;2.28;;
25752;SDS011;13600;50.816;4.416;2023-07-30T09:29:11;13.38;;;2.55;;
25752;SDS011;13600;50.816;4.416;2023-07-30T09:31:47;14.13;;;2.28;;
25752;SDS011;13600;50.816;4.416;2023-07-30T09:34:17;16.88;;;2.55;;
25752;SDS011;13600;50.816;4.416;2023-07-30T09:36:46;12.25;;;2.20;;
25752;SDS011;13600;50.816;4.416;2023-07-30T09:39:20;15.10;;;2.10;;
25752;SDS011;13600;50.816;4.416;2023-07-30T09:41:51;12.70;;;2.00;;
25752;SDS011;13600;50.816;4.416;2023-07-30T09:44:17;15.45;;;2.05;;
25752;SDS011;13600;50.816;4.416;2023-07-30T09:46:45;10.20;;;2.05;;
25752;SDS011;13600;50.816;4.416;2023-07-30T09:49:12;12.32;;;2.33;;
25752;SDS011;13600;50.816;4.416;2023-07-30T09:51:38;15.35;;;2.33;;
25752;SDS011;13600;50.816;4.416;2023-07-30T09:54:08;17.23;;;2.53;;
25752;SDS011;13600;50.816;4.416;2023-07-30T09:56:35;13.70;;;2.15;;
25752;SDS011;13600;50.816;4.416;2023-07-30T09:59:02;16.92;;;2.15;;
25752;SDS011;13600;50.816;4.416;2023-07-30T10:01:32;16.90;;;2.70;;
25752;SDS011;13600;50.816;4.416;2023-07-30T10:04:03;12.98;;;2.20;;
25752;SDS011;13600;50.816;4.416;2023-07-30T10:06:34;11.82;;;2.50;;
25752;SDS011;13600;50.816;4.416;2023-07-30T10:09:10;14.63;;;2.45;;
25752;SDS011;13600;50.816;4.416;2023-07-30T10:11:38;16.73;;;2.40;;
25752;SDS011;13600;50.816;4.416;2023-07-30T10:14:06;10.18;;;2.25;;
25752;SDS011;13600;50.816;4.416;2023-07-30T10:16:32;13.10;;;2.65;;
25752;SDS011;13600;50.816;4.416;2023-07-30T10:18:59;12.90;;;2.20;;
25752;SDS011;13600;50.816;4.416;2023-07-30T10:21:26;13.80;;;1.80;;
25752;SDS011;13600;50.816;4.416;2023-07-30T10:24:02;11.43;;;2.10;;
25752;SDS011;13600;50.816;4.416;2023-07-30T10:26:32;12.48;;;2.20;;
25752;SDS011;13600;50.816;4.416;2023-07-30T10:31:40;10.95;;;2.03;;
25752;SDS011;13600;50.816;4.416;2023-07-30T10:34:07;10.05;;;1.75;;
25752;SDS011;13600;50.816;4.416;2023-07-30T10:36:44;11.02;;;2.28;;
25752;SDS011;13600;50.816;4.416;2023-07-30T10:41:45;13.43;;;2.00;;
25752;SDS011;13600;50.816;4.416;2023-07-30T10:46:49;10.35;;;2.00;;
25752;SDS011;13600;50.816;4.416;2023-07-30T10:49:16;10.27;;;1.80;;
25752;SDS011;13600;50.816;4.416;2023-07-30T10:51:42;10.15;;;1.88;;
25752;SDS011;13600;50.816;4.416;2023-07-30T10:54:08;12.52;;;2.08;;
25752;SDS011;13600;50.816;4.416;2023-07-30T10:56:34;13.40;;;2.25;;
25752;SDS011;13600;50.816;4.416;2023-07-30T10:59:03;10.63;;;1.90;;
25752;SDS011;13600;50.816;4.416;2023-07-30T11:01:31;11.88;;;2.38;;
25752;SDS011;13600;50.816;4.416;2023-07-30T11:04:00;12.35;;;2.25;;
25752;SDS011;13600;50.816;4.416;2023-07-30T11:06:26;11.90;;;2.50;;
25752;SDS011;13600;50.816;4.416;2023-07-30T11:08:53;10.95;;;2.28;;
25752;SDS011;13600;50.816;4.416;2023-07-30T11:11:18;10.25;;;2.15;;
25752;SDS011;13600;50.816;4.416;2023-07-30T11:13:45;13.55;;;2.08;;
25752;SDS011;13600;50.816;4.416;2023-07-30T11:16:12;8.27;;;1.75;;
25752;SDS011;13600;50.816;4.416;2023-07-30T11:18:39;6.60;;;1.65;;
25752;SDS011;13600;50.816;4.416;2023-07-30T11:21:05;8.68;;;1.98;;
25752;SDS011;13600;50.816;4.416;2023-07-30T11:23:32;8.27;;;1.85;;
25752;SDS011;13600;50.816;4.416;2023-07-30T11:26:00;9.13;;;1.65;;
25752;SDS011;13600;50.816;4.416;2023-07-30T11:28:36;6.50;;;1.40;;
25752;SDS011;13600;50.816;4.416;2023-07-30T11:31:04;6.20;;;1.27;;
25752;SDS011;13600;50.816;4.416;2023-07-30T11:33:31;7.05;;;1.40;;
25752;SDS011;13600;50.816;4.416;2023-07-30T11:36:00;9.23;;;1.50;;
25752;SDS011;13600;50.816;4.416;2023-07-30T11:38:27;7.07;;;1.33;;
25752;SDS011;13600;50.816;4.416;2023-07-30T11:40:53;7.00;;;1.40;;
25752;SDS011;13600;50.816;4.416;2023-07-30T11:43:22;7.70;;;1.40;;
25752;SDS011;13600;50.816;4.416;2023-07-30T11:45:49;7.03;;;1.60;;
25752;SDS011;13600;50.816;4.416;2023-07-30T11:48:30;3.42;;;1.10;;
25752;SDS011;13600;50.816;4.416;2023-07-30T11:50:56;5.88;;;1.30;;
25752;SDS011;13600;50.816;4.416;2023-07-30T11:53:21;5.30;;;1.30;;
25752;SDS011;13600;50.816;4.416;2023-07-30T11:55:47;4.07;;;1.15;;
25752;SDS011;13600;50.816;4.416;2023-07-30T11:58:13;10.57;;;1.50;;
25752;SDS011;13600;50.816;4.416;2023-07-30T12:00:40;5.93;;;1.30;;
25752;SDS011;13600;50.816;4.416;2023-07-30T12:03:08;5.88;;;1.35;;
25752;SDS011;13600;50.816;4.416;2023-07-30T12:05:37;7.00;;;1.50;;
25752;SDS011;13600;50.816;4.416;2023-07-30T12:08:04;6.80;;;1.50;;
25752;SDS011;13600;50.816;4.416;2023-07-30T12:10:45;7.00;;;1.50;;
25752;SDS011;13600;50.816;4.416;2023-07-30T12:13:16;7.65;;;1.42;;
25752;SDS011;13600;50.816;4.416;2023-07-30T12:15:43;7.07;;;1.50;;
25752;SDS011;13600;50.816;4.416;2023-07-30T12:18:19;8.32;;;1.67;;
25752;SDS011;13600;50.816;4.416;2023-07-30T12:20:45;7.13;;;1.63;;
25752;SDS011;13600;50.816;4.416;2023-07-30T12:23:11;6.95;;;1.60;;
25752;SDS011;13600;50.816;4.416;2023-07-30T12:25:37;8.10;;;1.58;;
25752;SDS011;13600;50.816;4.416;2023-07-30T12:28:03;4.47;;;1.20;;
25752;SDS011;13600;50.816;4.416;2023-07-30T12:30:29;9.50;;;1.73;;
25752;SDS011;13600;50.816;4.416;2023-07-30T12:32:55;10.05;;;1.73;;
25752;SDS011;13600;50.816;4.416;2023-07-30T12:35:21;9.52;;;1.80;;
25752;SDS011;13600;50.816;4.416;2023-07-30T12:37:47;11.10;;;2.03;;
25752;SDS011;13600;50.816;4.416;2023-07-30T12:40:13;7.40;;;1.63;;
25752;SDS011;13600;50.816;4.416;2023-07-30T12:42:39;10.30;;;1.60;;
25752;SDS011;13600;50.816;4.416;2023-07-30T12:45:04;7.50;;;1.60;;
25752;SDS011;13600;50.816;4.416;2023-07-30T12:47:31;5.80;;;1.42;;
25752;SDS011;13600;50.816;4.416;2023-07-30T12:49:57;7.68;;;1.60;;
25752;SDS011;13600;50.816;4.416;2023-07-30T12:52:24;8.52;;;1.40;;
25752;SDS011;13600;50.816;4.416;2023-07-30T12:54:50;5.35;;;1.20;;
25752;SDS011;13600;50.816;4.416;2023-07-30T12:57:15;6.05;;;1.38;;
25752;SDS011;13600;50.816;4.416;2023-07-30T12:59:41;4.10;;;1.25;;
25752;SDS011;13600;50.816;4.416;2023-07-30T13:02:06;6.97;;;1.38;;
25752;SDS011;13600;50.816;4.416;2023-07-30T13:04:32;5.18;;;1.23;;
25752;SDS011;13600;50.816;4.416;2023-07-30T13:06:57;6.35;;;1.23;;
25752;SDS011;13600;50.816;4.416;2023-07-30T13:09:23;5.35;;;1.10;;
25752;SDS011;13600;50.816;4.416;2023-07-30T13:11:49;4.53;;;1.42;;
25752;SDS011;13600;50.816;4.416;2023-07-30T13:14:14;4.47;;;1.40;;
25752;SDS011;13600;50.816;4.416;2023-07-30T13:16:40;5.32;;;1.40;;
25752;SDS011;13600;50.816;4.416;2023-07-30T13:19:05;4.30;;;1.30;;
25752;SDS011;13600;50.816;4.416;2023-07-30T13:21:31;8.75;;;1.50;;
25752;SDS011;13600;50.816;4.416;2023-07-30T13:23:56;3.75;;;1.52;;
25752;SDS011;13600;50.816;4.416;2023-07-30T13:26:22;8.60;;;1.58;;
25752;SDS011;13600;50.816;4.416;2023-07-30T13:28:48;4.97;;;1.17;;
25752;SDS011;13600;50.816;4.416;2023-07-30T13:31:13;5.25;;;1.40;;
25752;SDS011;13600;50.816;4.416;2023-07-30T13:33:40;6.22;;;1.40;;
25752;SDS011;13600;50.816;4.416;2023-07-30T13:36:06;6.03;;;1.60;;
25752;SDS011;13600;50.816;4.416;2023-07-30T13:38:33;8.60;;;2.00;;
25752;SDS011;13600;50.816;4.416;2023-07-30T13:40:59;6.63;;;1.73;;
25752;SDS011;13600;50.816;4.416;2023-07-30T13:43:24;9.50;;;1.90;;
25752;SDS011;13600;50.816;4.416;2023-07-30T13:45:50;6.90;;;1.65;;
25752;SDS011;13600;50.816;4.416;2023-07-30T13:48:17;7.80;;;1.73;;
25752;SDS011;13600;50.816;4.416;2023-07-30T13:50:42;5.15;;;1.48;;
25752;SDS011;13600;50.816;4.416;2023-07-30T13:53:08;7.18;;;1.80;;
25752;SDS011;13600;50.816;4.416;2023-07-30T13:55:34;6.15;;;1.98;;
25752;SDS011;13600;50.816;4.416;2023-07-30T13:57:59;11.88;;;2.03;;
25752;SDS011;13600;50.816;4.416;2023-07-30T14:00:25;5.70;;;1.77;;
25752;SDS011;13600;50.816;4.416;2023-07-30T14:02:51;8.57;;;2.20;;
25752;SDS011;13600;50.816;4.416;2023-07-30T14:05:17;6.47;;;1.73;;
25752;SDS011;13600;50.816;4.416;2023-07-30T14:07:43;5.65;;;1.80;;
25752;SDS011;13600;50.816;4.416;2023-07-30T14:10:10;6.15;;;1.50;;
25752;SDS011;13600;50.816;4.416;2023-07-30T14:12:36;6.25;;;1.70;;
25752;SDS011;13600;50.816;4.416;2023-07-30T14:15:02;8.82;;;1.80;;
25752;SDS011;13600;50.816;4.416;2023-07-30T14:17:27;6.20;;;1.92;;
25752;SDS011;13600;50.816;4.416;2023-07-30T14:19:53;7.57;;;1.67;;
25752;SDS011;13600;50.816;4.416;2023-07-30T14:22:20;8.15;;;1.75;;
25752;SDS011;13600;50.816;4.416;2023-07-30T14:24:46;7.70;;;1.83;;
25752;SDS011;13600;50.816;4.416;2023-07-30T14:27:12;6.00;;;1.90;;
25752;SDS011;13600;50.816;4.416;2023-07-30T14:29:37;7.15;;;1.73;;
25752;SDS011;13600;50.816;4.416;2023-07-30T14:32:04;6.97;;;1.65;;
25752;SDS011;13600;50.816;4.416;2023-07-30T14:34:30;9.40;;;1.98;;
25752;SDS011;13600;50.816;4.416;2023-07-30T14:36:56;7.32;;;1.95;;
25752;SDS011;13600;50.816;4.416;2023-07-30T14:39:22;9.43;;;1.95;;
25752;SDS011;13600;50.816;4.416;2023-07-30T14:41:48;9.25;;;2.25;;